createdAt,value
2023-01-11T00:01:01.332Z,7.50
2023-01-11T00:03:32.525Z,10.40
2023-01-11T00:06:09.725Z,13.20
2023-01-11T00:08:40.221Z,8.50
2023-01-11T00:11:15.766Z,12.80
2023-01-11T00:13:47.064Z,8.17
2023-01-11T00:16:38.019Z,8.60
2023-01-11T00:19:11.273Z,13.07
2023-01-11T00:21:40.969Z,11.70
2023-01-11T00:24:11.022Z,8.10
2023-01-11T00:26:42.229Z,6.87
2023-01-11T00:29:11.679Z,8.50
2023-01-11T00:31:42.595Z,10.00
2023-01-11T00:34:13.288Z,9.93
2023-01-11T00:36:45.980Z,10.17
2023-01-11T00:39:14.944Z,10.17
2023-01-11T00:42:01.313Z,11.53
2023-01-11T00:44:47.848Z,9.80
2023-01-11T00:47:34.157Z,7.90
2023-01-11T00:50:02.582Z,10.10
2023-01-11T00:52:36.101Z,7.87
2023-01-11T00:55:08.984Z,9.43
2023-01-11T00:57:40.572Z,9.77
2023-01-11T01:00:14.933Z,7.13
2023-01-11T01:02:44.275Z,8.50
2023-01-11T01:05:14.433Z,7.17
2023-01-11T01:07:52.361Z,9.00
2023-01-11T01:10:23.479Z,7.80
2023-01-11T01:13:16.605Z,7.30
2023-01-11T01:15:46.999Z,8.50
2023-01-11T01:18:18.179Z,5.93
2023-01-11T01:20:55.401Z,4.40
2023-01-11T01:23:26.594Z,4.87
2023-01-11T01:25:58.443Z,6.10
2023-01-11T01:28:28.036Z,7.30
2023-01-11T01:31:03.153Z,8.30
2023-01-11T01:33:36.555Z,5.97
2023-01-11T01:36:08.624Z,11.20
2023-01-11T01:38:40.040Z,4.57
2023-01-11T01:41:12.692Z,7.63
2023-01-11T01:43:54.056Z,8.67
2023-01-11T01:46:23.972Z,4.63
2023-01-11T01:49:01.573Z,7.43
2023-01-11T01:51:37.848Z,4.90
2023-01-11T01:54:12.032Z,5.60
2023-01-11T01:56:46.938Z,7.33
2023-01-11T01:59:18.500Z,8.77
2023-01-11T02:01:50.618Z,5.93
2023-01-11T02:04:25.716Z,4.37
2023-01-11T02:06:58.113Z,8.73
2023-01-11T02:10:01.596Z,6.50
2023-01-11T02:12:35.755Z,5.73
2023-01-11T02:15:06.503Z,7.70
2023-01-11T02:17:35.184Z,7.77
2023-01-11T02:20:22.837Z,3.90
2023-01-11T02:23:13.121Z,4.23
2023-01-11T02:26:28.108Z,8.90
2023-01-11T02:29:07.227Z,8.53
2023-01-11T02:31:46.063Z,9.93
2023-01-11T02:34:29.007Z,7.93
2023-01-11T02:37:12.756Z,6.03
2023-01-11T02:39:53.158Z,7.03
2023-01-11T02:42:46.739Z,14.87
2023-01-11T02:45:39.057Z,6.80
2023-01-11T02:48:20.633Z,8.83
2023-01-11T02:50:58.829Z,11.20
2023-01-11T02:53:38.276Z,11.40
2023-01-11T02:56:12.304Z,7.70
2023-01-11T02:58:44.632Z,14.10
2023-01-11T03:01:15.729Z,12.33
2023-01-11T03:03:43.870Z,17.20
2023-01-11T03:06:18.464Z,16.97
2023-01-11T03:09:14.734Z,21.00
2023-01-11T03:12:16.137Z,20.13
2023-01-11T03:14:59.281Z,16.00
2023-01-11T03:17:42.756Z,22.27
2023-01-11T03:20:24.589Z,26.13
2023-01-11T03:23:11.815Z,25.00
2023-01-11T03:25:58.076Z,17.13
2023-01-11T03:28:38.540Z,23.83
2023-01-11T03:31:11.280Z,23.93
2023-01-11T03:33:55.997Z,18.70
2023-01-11T03:36:29.700Z,26.73
2023-01-11T03:39:10.329Z,20.67
2023-01-11T03:41:52.040Z,24.63
2023-01-11T03:44:24.083Z,22.97
2023-01-11T03:47:00.034Z,24.47
2023-01-11T03:49:41.558Z,27.30
2023-01-11T03:52:25.701Z,28.47
2023-01-11T03:54:57.811Z,26.63
2023-01-11T03:57:31.120Z,26.30
2023-01-11T04:00:01.045Z,26.73
2023-01-11T04:02:40.236Z,22.73
2023-01-11T04:05:14.366Z,32.43
2023-01-11T04:08:14.329Z,30.17
2023-01-11T04:10:45.559Z,25.33
2023-01-11T04:13:18.794Z,28.03
2023-01-11T04:15:49.009Z,32.90
2023-01-11T04:18:21.903Z,26.70
2023-01-11T04:20:51.995Z,31.17
2023-01-11T04:23:22.633Z,26.43
2023-01-11T04:25:53.438Z,27.73
2023-01-11T04:28:28.088Z,29.43
2023-01-11T04:31:17.782Z,19.53
2023-01-11T04:34:00.509Z,29.83
2023-01-11T04:36:51.403Z,33.17
2023-01-11T04:39:42.682Z,21.03
2023-01-11T04:42:30.840Z,30.10
2023-01-11T04:45:02.092Z,24.60
2023-01-11T04:47:56.741Z,23.40
2023-01-11T04:50:44.939Z,21.33
2023-01-11T04:53:19.381Z,23.73
2023-01-11T04:55:50.605Z,15.37
2023-01-11T04:58:21.781Z,20.43
2023-01-11T05:00:54.432Z,21.63
2023-01-11T05:03:43.571Z,16.60
2023-01-11T05:06:16.706Z,21.63
2023-01-11T05:08:49.116Z,17.20
2023-01-11T05:11:20.872Z,24.03
2023-01-11T05:13:49.951Z,16.50
2023-01-11T05:16:21.319Z,18.33
2023-01-11T05:18:55.090Z,18.37
2023-01-11T05:21:28.711Z,15.90
2023-01-11T05:24:03.361Z,23.23
2023-01-11T05:26:34.817Z,20.33
2023-01-11T05:29:05.530Z,14.77
2023-01-11T05:31:37.418Z,13.83
2023-01-11T05:34:10.690Z,17.27
2023-01-11T05:36:40.874Z,17.07
2023-01-11T05:39:14.345Z,15.50
2023-01-11T05:41:44.596Z,14.07
2023-01-11T05:44:31.879Z,17.60
2023-01-11T05:47:00.515Z,18.50
2023-01-11T05:49:30.313Z,19.33
2023-01-11T05:51:58.801Z,20.80
2023-01-11T05:54:31.425Z,22.23
2023-01-11T05:56:59.549Z,26.87
2023-01-11T05:59:28.527Z,15.23
2023-01-11T06:02:02.839Z,14.70
2023-01-11T06:04:31.003Z,17.63
2023-01-11T06:06:59.415Z,21.23
2023-01-11T06:09:29.056Z,20.57
2023-01-11T06:11:57.136Z,18.93
2023-01-11T06:14:25.119Z,15.27
2023-01-11T06:16:53.165Z,25.40
2023-01-11T06:19:21.322Z,19.77
2023-01-11T06:21:49.801Z,18.07
2023-01-11T06:24:17.980Z,18.87
2023-01-11T06:26:47.488Z,13.47
2023-01-11T06:29:15.799Z,28.60
2023-01-11T06:31:43.867Z,24.60
2023-01-11T06:34:11.944Z,17.43
2023-01-11T06:36:40.455Z,27.60
2023-01-11T06:39:08.447Z,22.30
2023-01-11T06:41:36.471Z,19.23
2023-01-11T06:44:06.249Z,25.43
2023-01-11T06:46:34.352Z,21.27
2023-01-11T06:49:03.798Z,20.73
2023-01-11T06:51:31.967Z,28.60
2023-01-11T06:54:00.184Z,23.03
2023-01-11T06:56:28.195Z,26.57
2023-01-11T06:58:56.442Z,17.73
2023-01-11T07:01:26.546Z,15.40
2023-01-11T07:03:54.770Z,27.17
2023-01-11T07:06:23.542Z,19.13
2023-01-11T07:08:53.747Z,21.50
2023-01-11T07:11:21.813Z,22.87
2023-01-11T07:13:49.858Z,23.77
2023-01-11T07:16:19.112Z,22.00
2023-01-11T07:18:48.693Z,20.67
2023-01-11T07:21:16.813Z,22.23
2023-01-11T07:23:45.987Z,20.23
2023-01-11T07:26:14.729Z,22.30
2023-01-11T07:28:42.818Z,26.20
2023-01-11T07:31:10.926Z,23.37
2023-01-11T07:33:39.139Z,25.90
2023-01-11T07:36:09.379Z,27.00
2023-01-11T07:38:37.996Z,23.43
2023-01-11T07:41:27.311Z,18.97
2023-01-11T07:43:54.291Z,29.40
2023-01-11T07:46:22.400Z,25.37
2023-01-11T07:48:50.747Z,20.90
2023-01-11T07:51:24.087Z,28.23
2023-01-11T07:53:52.429Z,18.60
2023-01-11T07:56:21.811Z,26.13
2023-01-11T07:58:51.358Z,17.87
2023-01-11T08:01:19.352Z,27.53
2023-01-11T08:03:47.369Z,21.03
2023-01-11T08:06:15.499Z,24.30
2023-01-11T08:08:45.388Z,22.63
2023-01-11T08:11:31.089Z,23.87
2023-01-11T08:14:16.569Z,18.77
2023-01-11T08:16:44.675Z,28.77
2023-01-11T08:19:12.729Z,20.87
2023-01-11T08:21:40.878Z,35.87
2023-01-11T08:24:11.793Z,26.40
2023-01-11T08:26:40.000Z,21.10
2023-01-11T08:29:08.105Z,20.83
2023-01-11T08:31:36.087Z,18.10
2023-01-11T08:34:04.284Z,27.13
2023-01-11T08:36:32.315Z,24.23
2023-01-11T08:39:01.106Z,25.93
2023-01-11T08:41:32.627Z,19.83
2023-01-11T08:44:00.715Z,17.77
2023-01-11T08:46:28.762Z,20.37
2023-01-11T08:48:57.153Z,22.63
2023-01-11T08:51:25.084Z,25.10
2023-01-11T08:53:53.238Z,25.70
2023-01-11T08:56:21.668Z,28.47
2023-01-11T08:58:51.053Z,26.50
2023-01-11T09:01:19.273Z,28.57
2023-01-11T09:03:47.240Z,20.77
2023-01-11T09:06:15.330Z,19.07
2023-01-11T09:08:43.722Z,21.53
2023-01-11T09:11:32.687Z,21.67
2023-01-11T09:14:02.045Z,28.03
2023-01-11T09:16:30.140Z,27.87
2023-01-11T09:18:58.303Z,24.53
2023-01-11T09:21:26.266Z,19.73
2023-01-11T09:23:54.673Z,23.97
2023-01-11T09:26:22.812Z,18.93
2023-01-11T09:28:50.887Z,19.33
2023-01-11T09:31:20.398Z,24.77
2023-01-11T09:33:48.634Z,14.90
2023-01-11T09:36:18.880Z,20.40
2023-01-11T09:38:48.593Z,25.27
2023-01-11T09:41:33.230Z,19.93
2023-01-11T09:44:10.479Z,21.90
2023-01-11T09:46:51.426Z,20.70
2023-01-11T09:49:23.332Z,26.43
2023-01-11T09:51:53.553Z,15.00
2023-01-11T09:54:27.174Z,23.03
2023-01-11T09:57:03.084Z,21.03
2023-01-11T09:59:40.437Z,31.70
2023-01-11T10:02:19.623Z,15.60
2023-01-11T10:05:32.051Z,23.27
2023-01-11T10:18:27.731Z,24.37
2023-01-11T10:18:29.796Z,27.97
2023-01-11T10:20:24.846Z,10.30
2023-01-11T10:22:57.564Z,20.20
2023-01-11T10:25:33.744Z,28.60
2023-01-11T10:28:06.826Z,27.70
2023-01-11T10:30:51.975Z,23.23
2023-01-11T10:33:45.380Z,30.47
2023-01-11T10:36:34.631Z,23.47
2023-01-11T10:39:21.778Z,16.83
2023-01-11T10:42:00.689Z,24.17
2023-01-11T10:44:35.759Z,28.40
2023-01-11T10:47:04.691Z,22.10
2023-01-11T10:49:47.771Z,23.40
2023-01-11T10:52:26.161Z,23.87
2023-01-11T10:54:57.268Z,23.40
2023-01-11T10:57:59.470Z,19.53
2023-01-11T11:00:36.706Z,25.30
2023-01-11T11:03:20.156Z,19.60
2023-01-11T11:05:57.789Z,19.93
2023-01-11T11:08:32.072Z,22.80
2023-01-11T11:11:04.351Z,19.67
2023-01-11T11:13:44.676Z,14.23
2023-01-11T11:16:26.323Z,18.20
2023-01-11T11:19:00.516Z,18.93
2023-01-11T11:21:33.811Z,24.43
2023-01-11T11:24:06.101Z,21.90
2023-01-11T11:26:38.432Z,17.50
2023-01-11T11:29:09.313Z,21.00
2023-01-11T11:31:42.827Z,16.20
2023-01-11T11:34:17.279Z,26.43
2023-01-11T11:36:48.886Z,20.33
2023-01-11T11:39:22.113Z,17.50
2023-01-11T11:41:56.166Z,19.83
2023-01-11T11:44:26.195Z,24.07
2023-01-11T11:47:01.561Z,21.80
2023-01-11T11:49:31.529Z,18.00
2023-01-11T11:52:02.722Z,19.30
2023-01-11T11:54:33.845Z,20.20
2023-01-11T11:57:15.945Z,17.20
2023-01-11T11:59:48.505Z,17.17
2023-01-11T12:02:26.329Z,23.30
2023-01-11T12:04:55.645Z,21.37
2023-01-11T12:07:28.216Z,19.33
2023-01-11T12:10:00.975Z,14.00
2023-01-11T12:12:29.749Z,13.90
2023-01-11T12:15:09.438Z,26.80
2023-01-11T12:17:38.145Z,17.73
2023-01-11T12:20:29.445Z,25.93
2023-01-11T12:23:19.197Z,16.83
2023-01-11T12:26:01.304Z,15.13
2023-01-11T12:28:43.440Z,18.77
2023-01-11T12:31:19.576Z,24.33
2023-01-11T12:33:54.429Z,21.90
2023-01-11T12:36:30.567Z,17.33
2023-01-11T12:39:07.987Z,17.83
2023-01-11T12:42:00.306Z,21.73
2023-01-11T12:44:42.077Z,15.87
2023-01-11T12:47:42.476Z,16.77
2023-01-11T12:50:18.608Z,25.23
2023-01-11T12:53:02.404Z,19.50
2023-01-11T12:55:47.634Z,22.60
2023-01-11T12:58:20.583Z,22.87
2023-01-11T13:01:08.218Z,20.03
2023-01-11T13:04:05.493Z,12.33
2023-01-11T13:06:40.652Z,21.37
2023-01-11T13:09:19.242Z,20.20
2023-01-11T13:11:55.573Z,28.13
2023-01-11T13:14:47.149Z,26.27
2023-01-11T13:17:23.883Z,20.97
2023-01-11T13:20:04.202Z,20.73
2023-01-11T13:22:36.468Z,17.67
2023-01-11T13:25:14.687Z,15.03
2023-01-11T13:27:45.525Z,24.10
2023-01-11T13:30:17.938Z,18.13
2023-01-11T13:32:52.240Z,17.97
2023-01-11T13:35:27.157Z,28.27
2023-01-11T13:37:59.880Z,20.40
2023-01-11T13:40:35.158Z,21.60
2023-01-11T13:43:09.082Z,20.57
2023-01-11T13:45:40.650Z,27.00
2023-01-11T13:48:17.088Z,23.27
2023-01-11T13:50:53.024Z,10.30
2023-01-11T13:53:27.082Z,32.40
2023-01-11T13:56:03.132Z,25.87
2023-01-11T13:58:38.549Z,18.80
2023-01-11T14:01:11.839Z,21.97
2023-01-11T14:03:47.783Z,24.40
2023-01-11T14:06:33.301Z,22.83
2023-01-11T14:09:14.697Z,21.37
2023-01-11T14:11:49.718Z,13.27
2023-01-11T14:14:56.796Z,19.27
2023-01-11T14:17:43.010Z,14.83
2023-01-11T14:20:21.713Z,17.83
2023-01-11T14:23:01.005Z,20.50
2023-01-11T14:25:33.478Z,19.03
2023-01-11T14:28:25.939Z,22.97
2023-01-11T14:31:20.579Z,22.27
2023-01-11T14:34:42.354Z,21.17
2023-01-11T14:37:28.978Z,29.83
2023-01-11T14:40:20.063Z,32.37
2023-01-11T14:43:16.326Z,30.03
2023-01-11T14:45:57.713Z,17.17
2023-01-11T14:48:34.313Z,30.67
2023-01-11T14:51:28.190Z,24.83
2023-01-11T14:54:05.566Z,20.73
2023-01-11T14:56:53.476Z,23.33
2023-01-11T14:59:36.718Z,22.57
2023-01-11T15:02:31.484Z,30.93
2023-01-11T15:05:31.612Z,25.67
2023-01-11T15:08:17.082Z,19.77
2023-01-11T15:11:05.522Z,16.40
2023-01-11T15:13:37.800Z,21.70
2023-01-11T15:16:28.174Z,20.63
2023-01-11T15:18:56.559Z,21.77
2023-01-11T15:21:27.936Z,23.07
2023-01-11T15:23:59.827Z,33.73
2023-01-11T15:26:28.471Z,23.73
2023-01-11T15:28:58.416Z,37.90
2023-01-11T15:31:34.546Z,35.17
2023-01-11T15:34:05.525Z,33.20
2023-01-11T15:36:54.460Z,29.77
2023-01-11T15:39:32.989Z,26.20
2023-01-11T15:42:26.138Z,25.93
2023-01-11T15:45:14.568Z,36.23
2023-01-11T15:48:02.505Z,27.50
2023-01-11T15:50:58.777Z,22.80
2023-01-11T15:54:05.336Z,28.17
2023-01-11T15:56:59.453Z,31.00
2023-01-11T15:59:46.410Z,26.88
2023-01-11T16:02:57.312Z,37.17
2023-01-11T16:05:28.175Z,27.80
2023-01-11T16:08:07.611Z,18.30
2023-01-11T16:10:52.588Z,31.67
2023-01-11T16:13:35.838Z,32.17
2023-01-11T16:16:14.745Z,30.60
2023-01-11T16:18:47.335Z,16.23
2023-01-11T16:21:19.362Z,30.37
2023-01-11T16:23:47.501Z,28.17
2023-01-11T16:26:22.338Z,18.93
2023-01-11T16:28:52.231Z,26.00
2023-01-11T16:31:21.461Z,14.77
2023-01-11T16:33:50.181Z,25.97
2023-01-11T16:36:21.099Z,23.33
2023-01-11T16:38:57.487Z,26.07
2023-01-11T16:41:31.778Z,30.73
2023-01-11T16:44:03.961Z,34.00
2023-01-11T16:47:07.349Z,27.07
2023-01-11T16:49:36.011Z,18.53
2023-01-11T16:52:43.616Z,23.57
2023-01-11T16:55:17.888Z,35.97
2023-01-11T16:57:49.117Z,35.40
2023-01-11T17:00:36.057Z,33.57
2023-01-11T17:03:23.759Z,35.43
2023-01-11T17:05:56.851Z,20.50
2023-01-11T17:08:32.219Z,28.23
2023-01-11T17:11:04.996Z,29.90
2023-01-11T17:14:06.157Z,28.27
2023-01-11T17:16:39.423Z,24.47
2023-01-11T17:19:13.620Z,28.20
2023-01-11T17:21:49.542Z,25.67
2023-01-11T17:24:24.013Z,25.07
2023-01-11T17:26:59.440Z,27.57
2023-01-11T17:29:31.244Z,27.63
2023-01-11T17:32:02.724Z,22.93
2023-01-11T17:34:34.956Z,21.47
2023-01-11T17:37:10.312Z,21.07
2023-01-11T17:39:44.188Z,17.23
2023-01-11T17:42:33.060Z,15.33
2023-01-11T17:45:17.341Z,13.93
2023-01-11T17:47:48.559Z,23.57
2023-01-11T17:50:26.244Z,26.00
2023-01-11T17:53:05.663Z,17.40
2023-01-11T17:55:35.823Z,25.43
2023-01-11T17:58:19.249Z,23.47
2023-01-11T18:01:20.321Z,21.20
2023-01-11T18:03:50.318Z,22.20
2023-01-11T18:06:26.558Z,20.73
2023-01-11T18:08:56.891Z,23.80
2023-01-11T18:11:28.939Z,18.93
2023-01-11T18:14:00.492Z,23.80
2023-01-11T18:16:28.946Z,25.17
2023-01-11T18:18:57.249Z,26.47
2023-01-11T18:21:53.769Z,27.33
2023-01-11T18:24:47.593Z,27.23
2023-01-11T18:27:27.465Z,17.63
2023-01-11T18:30:01.181Z,28.87
2023-01-11T18:32:34.838Z,23.90
2023-01-11T18:35:03.248Z,26.43
2023-01-11T18:37:31.339Z,20.33
2023-01-11T18:40:01.321Z,20.20
2023-01-11T18:42:34.857Z,28.93
2023-01-11T18:45:02.991Z,21.73
2023-01-11T18:47:31.056Z,29.50
2023-01-11T18:49:59.875Z,17.27
2023-01-11T18:52:29.670Z,28.27
2023-01-11T18:54:58.677Z,14.60
2023-01-11T18:57:27.061Z,23.60
2023-01-11T18:59:56.720Z,20.93
2023-01-11T19:02:27.197Z,22.73
2023-01-11T19:04:56.992Z,19.50
2023-01-11T19:07:26.477Z,14.50
2023-01-11T19:09:56.110Z,23.90
2023-01-11T19:12:24.855Z,21.07
2023-01-11T19:14:53.318Z,14.50
2023-01-11T19:17:23.379Z,27.40
2023-01-11T19:19:52.580Z,14.73
2023-01-11T19:22:26.737Z,19.60
2023-01-11T19:24:58.576Z,15.10
2023-01-11T19:27:27.260Z,20.27
2023-01-11T19:29:59.257Z,16.27
2023-01-11T19:32:30.231Z,17.60
2023-01-11T19:35:01.715Z,14.37
2023-01-11T19:37:32.696Z,20.67
2023-01-11T19:40:02.794Z,23.60
2023-01-11T19:42:31.292Z,26.13
2023-01-11T19:44:59.389Z,24.90
2023-01-11T19:47:32.170Z,18.23
2023-01-11T19:50:01.723Z,24.30
2023-01-11T19:52:32.111Z,21.10
2023-01-11T19:55:02.051Z,26.80
2023-01-11T19:57:33.309Z,20.93
2023-01-11T20:00:04.079Z,26.30
2023-01-11T20:02:54.692Z,25.23
2023-01-11T20:05:23.736Z,19.50
2023-01-11T20:07:54.430Z,26.53
2023-01-11T20:10:25.631Z,14.87
2023-01-11T20:12:54.706Z,26.83
2023-01-11T20:15:24.532Z,11.43
2023-01-11T20:17:54.444Z,10.37
2023-01-11T20:20:23.068Z,11.63
2023-01-11T20:23:11.874Z,15.53
2023-01-11T20:25:42.714Z,15.57
2023-01-11T20:28:13.909Z,9.63
2023-01-11T20:30:45.122Z,15.03
2023-01-11T20:33:15.231Z,27.40
2023-01-11T20:35:45.383Z,26.17
2023-01-11T20:38:13.757Z,26.67
2023-01-11T20:40:43.440Z,17.83
2023-01-11T20:43:12.791Z,28.13
2023-01-11T20:45:41.690Z,25.63
2023-01-11T20:48:10.945Z,30.17
2023-01-11T20:50:43.034Z,32.23
2023-01-11T20:53:16.046Z,23.83
2023-01-11T20:55:49.121Z,27.70
2023-01-11T20:58:17.580Z,22.70
2023-01-11T21:00:45.889Z,19.40
2023-01-11T21:03:17.726Z,27.97
2023-01-11T21:05:48.881Z,28.63
2023-01-11T21:08:17.676Z,25.30
2023-01-11T21:10:46.600Z,28.13
2023-01-11T21:13:16.376Z,28.77
2023-01-11T21:15:47.612Z,36.63
2023-01-11T21:18:18.652Z,26.13
2023-01-11T21:20:50.172Z,28.97
2023-01-11T21:23:19.640Z,20.03
2023-01-11T21:25:48.712Z,39.43
2023-01-11T21:28:17.991Z,30.87
2023-01-11T21:30:47.661Z,28.70
2023-01-11T21:33:18.660Z,24.40
2023-01-11T21:35:48.938Z,38.17
2023-01-11T21:38:18.560Z,28.97
2023-01-11T21:40:48.493Z,36.80
2023-01-11T21:43:16.849Z,28.13
2023-01-11T21:45:45.146Z,26.20
2023-01-11T21:48:13.307Z,23.87
2023-01-11T21:50:46.555Z,23.57
2023-01-11T21:53:38.381Z,21.73
2023-01-11T21:56:09.418Z,28.40
2023-01-11T21:58:39.286Z,21.13
2023-01-11T22:01:18.168Z,22.57
2023-01-11T22:03:46.967Z,18.30
2023-01-11T22:06:16.505Z,21.60
2023-01-11T22:08:47.557Z,24.67
2023-01-11T22:11:21.877Z,19.90
2023-01-11T22:13:50.935Z,21.50
2023-01-11T22:16:19.631Z,14.30
2023-01-11T22:18:50.365Z,16.13
2023-01-11T22:21:21.376Z,24.90
2023-01-11T22:23:55.106Z,24.73
2023-01-11T22:26:24.229Z,17.47
2023-01-11T22:29:15.378Z,31.10
2023-01-11T22:31:48.053Z,20.97
2023-01-11T22:34:17.530Z,24.37
2023-01-11T22:36:52.886Z,26.20
2023-01-11T22:39:31.334Z,25.87
2023-01-11T22:42:05.339Z,31.57
2023-01-11T22:44:33.400Z,30.57
2023-01-11T22:47:03.116Z,23.67
2023-01-11T22:49:57.730Z,25.57
2023-01-11T22:52:33.027Z,18.13
2023-01-11T22:55:04.433Z,14.67
2023-01-11T22:57:37.930Z,28.53
2023-01-11T23:00:29.455Z,24.57
2023-01-11T23:03:02.810Z,31.60
2023-01-11T23:05:40.338Z,18.53
2023-01-11T23:08:34.092Z,35.00
2023-01-11T23:11:08.806Z,24.23
2023-01-11T23:14:02.018Z,21.77
2023-01-11T23:16:52.170Z,21.37
2023-01-11T23:19:23.602Z,23.37
2023-01-11T23:22:14.555Z,25.00
2023-01-11T23:24:43.009Z,34.93
2023-01-11T23:27:34.148Z,20.93
2023-01-11T23:30:06.030Z,25.37
2023-01-11T23:32:43.448Z,29.37
2023-01-11T23:35:12.184Z,19.63
2023-01-11T23:37:49.709Z,21.20
2023-01-11T23:41:01.624Z,32.60
2023-01-11T23:43:37.835Z,25.53
2023-01-11T23:47:06.204Z,25.07
2023-01-11T23:49:44.832Z,27.53
2023-01-11T23:52:13.163Z,28.93
2023-01-11T23:55:04.003Z,19.90
2023-01-11T23:58:06.368Z,27.97
